sensor_id;sensor_type;location;lat;lon;timestamp;pressure;altitude;pressure_sealevel;temperature;humidity
74163;BME280;62515;52.758;5.076;2023-07-13T00:01:24;101335.97;;;14.53;100.00
74163;BME280;62515;52.758;5.076;2023-07-13T00:03:51;101341.81;;;14.47;100.00
74163;BME280;62515;52.758;5.076;2023-07-13T00:06:18;101343.41;;;14.39;100.00
74163;BME280;62515;52.758;5.076;2023-07-13T00:08:44;101345.63;;;14.34;100.00
74163;BME280;62515;52.758;5.076;2023-07-13T00:11:11;101349.47;;;14.30;100.00
74163;BME280;62515;52.758;5.076;2023-07-13T00:13:38;101352.25;;;14.28;100.00
74163;BME280;62515;52.758;5.076;2023-07-13T00:16:06;101348.63;;;14.29;100.00
74163;BME280;62515;52.758;5.076;2023-07-13T00:18:36;101346.03;;;14.28;100.00
74163;BME280;62515;52.758;5.076;2023-07-13T00:21:03;101345.66;;;14.21;100.00
74163;BME280;62515;52.758;5.076;2023-07-13T00:23:30;101343.84;;;14.22;100.00
74163;BME280;62515;52.758;5.076;2023-07-13T00:25:57;101336.31;;;14.15;100.00
74163;BME280;62515;52.758;5.076;2023-07-13T00:28:24;101339.25;;;14.24;100.00
74163;BME280;62515;52.758;5.076;2023-07-13T00:30:51;101348.25;;;14.23;100.00
74163;BME280;62515;52.758;5.076;2023-07-13T00:33:18;101342.88;;;14.23;100.00
74163;BME280;62515;52.758;5.076;2023-07-13T00:35:46;101343.38;;;14.17;100.00
74163;BME280;62515;52.758;5.076;2023-07-13T00:38:13;101340.44;;;14.08;100.00
74163;BME280;62515;52.758;5.076;2023-07-13T00:40:40;101338.75;;;14.07;100.00
74163;BME280;62515;52.758;5.076;2023-07-13T00:43:10;101343.88;;;14.10;100.00
74163;BME280;62515;52.758;5.076;2023-07-13T00:46:17;101354.31;;;14.13;100.00
74163;BME280;62515;52.758;5.076;2023-07-13T00:48:46;101338.25;;;14.13;100.00
74163;BME280;62515;52.758;5.076;2023-07-13T00:51:19;101334.84;;;14.11;100.00
74163;BME280;62515;52.758;5.076;2023-07-13T00:53:47;101321.94;;;14.05;100.00
74163;BME280;62515;52.758;5.076;2023-07-13T00:56:14;101333.41;;;14.07;100.00
74163;BME280;62515;52.758;5.076;2023-07-13T00:58:41;101331.94;;;14.03;100.00
74163;BME280;62515;52.758;5.076;2023-07-13T01:01:08;101328.75;;;13.98;100.00
74163;BME280;62515;52.758;5.076;2023-07-13T01:03:35;101330.34;;;14.01;100.00
74163;BME280;62515;52.758;5.076;2023-07-13T01:06:02;101346.16;;;14.04;100.00
74163;BME280;62515;52.758;5.076;2023-07-13T01:08:31;101330.72;;;14.07;100.00
74163;BME280;62515;52.758;5.076;2023-07-13T01:10:59;101333.16;;;14.10;100.00
74163;BME280;62515;52.758;5.076;2023-07-13T01:13:26;101330.47;;;14.10;100.00
74163;BME280;62515;52.758;5.076;2023-07-13T01:16:05;101338.03;;;14.17;100.00
74163;BME280;62515;52.758;5.076;2023-07-13T01:18:38;101332.19;;;14.23;100.00
74163;BME280;62515;52.758;5.076;2023-07-13T01:21:07;101334.50;;;14.27;100.00
74163;BME280;62515;52.758;5.076;2023-07-13T01:23:33;101303.22;;;14.17;100.00
74163;BME280;62515;52.758;5.076;2023-07-13T01:26:00;101328.06;;;14.30;100.00
74163;BME280;62515;52.758;5.076;2023-07-13T01:28:28;101327.19;;;14.29;100.00
74163;BME280;62515;52.758;5.076;2023-07-13T01:30:56;101326.59;;;14.26;100.00
74163;BME280;62515;52.758;5.076;2023-07-13T01:33:25;101331.69;;;14.29;100.00
74163;BME280;62515;52.758;5.076;2023-07-13T01:35:52;101336.19;;;14.28;100.00
74163;BME280;62515;52.758;5.076;2023-07-13T01:38:22;101340.25;;;14.34;100.00
74163;BME280;62515;52.758;5.076;2023-07-13T01:40:49;101340.44;;;14.31;100.00
74163;BME280;62515;52.758;5.076;2023-07-13T01:43:16;101340.00;;;14.37;100.00
74163;BME280;62515;52.758;5.076;2023-07-13T01:45:43;101337.66;;;14.32;100.00
74163;BME280;62515;52.758;5.076;2023-07-13T01:48:13;101336.31;;;14.27;100.00
74163;BME280;62515;52.758;5.076;2023-07-13T01:50:41;101326.31;;;14.18;100.00
74163;BME280;62515;52.758;5.076;2023-07-13T01:53:08;101334.25;;;14.19;100.00
74163;BME280;62515;52.758;5.076;2023-07-13T01:55:36;101330.09;;;14.15;100.00
74163;BME280;62515;52.758;5.076;2023-07-13T01:58:04;101333.66;;;14.27;100.00
74163;BME280;62515;52.758;5.076;2023-07-13T02:00:31;101335.56;;;14.25;100.00
74163;BME280;62515;52.758;5.076;2023-07-13T02:02:59;101328.19;;;14.17;100.00
74163;BME280;62515;52.758;5.076;2023-07-13T02:05:26;101336.69;;;14.22;100.00
74163;BME280;62515;52.758;5.076;2023-07-13T02:07:53;101347.16;;;14.25;100.00
74163;BME280;62515;52.758;5.076;2023-07-13T02:10:20;101339.72;;;14.18;100.00
74163;BME280;62515;52.758;5.076;2023-07-13T02:12:49;101331.44;;;14.09;100.00
74163;BME280;62515;52.758;5.076;2023-07-13T02:15:16;101341.66;;;14.15;100.00
74163;BME280;62515;52.758;5.076;2023-07-13T02:17:43;101348.34;;;14.10;100.00
74163;BME280;62515;52.758;5.076;2023-07-13T02:20:10;101343.00;;;14.10;100.00
74163;BME280;62515;52.758;5.076;2023-07-13T02:22:37;101349.22;;;14.10;100.00
74163;BME280;62515;52.758;5.076;2023-07-13T02:25:05;101342.63;;;14.03;100.00
74163;BME280;62515;52.758;5.076;2023-07-13T02:27:32;101347.59;;;14.08;100.00
74163;BME280;62515;52.758;5.076;2023-07-13T02:30:00;101351.91;;;14.10;100.00
74163;BME280;62515;52.758;5.076;2023-07-13T02:32:27;101347.22;;;14.01;100.00
74163;BME280;62515;52.758;5.076;2023-07-13T02:34:54;101351.75;;;14.01;100.00
74163;BME280;62515;52.758;5.076;2023-07-13T02:37:21;101355.75;;;13.95;100.00
74163;BME280;62515;52.758;5.076;2023-07-13T02:39:49;101358.66;;;13.92;100.00
74163;BME280;62515;52.758;5.076;2023-07-13T02:42:16;101350.63;;;13.92;100.00
74163;BME280;62515;52.758;5.076;2023-07-13T02:44:43;101352.81;;;13.87;100.00
74163;BME280;62515;52.758;5.076;2023-07-13T02:47:12;101355.97;;;13.92;100.00
74163;BME280;62515;52.758;5.076;2023-07-13T02:49:39;101352.81;;;13.98;100.00
74163;BME280;62515;52.758;5.076;2023-07-13T02:52:06;101352.34;;;13.93;100.00
74163;BME280;62515;52.758;5.076;2023-07-13T02:54:33;101362.09;;;14.05;100.00
74163;BME280;62515;52.758;5.076;2023-07-13T02:57:01;101326.31;;;13.84;100.00
74163;BME280;62515;52.758;5.076;2023-07-13T02:59:27;101335.28;;;13.83;100.00
74163;BME280;62515;52.758;5.076;2023-07-13T03:01:54;101364.28;;;14.00;100.00
74163;BME280;62515;52.758;5.076;2023-07-13T03:04:22;101338.25;;;13.91;100.00
74163;BME280;62515;52.758;5.076;2023-07-13T03:06:49;101363.81;;;14.06;100.00
74163;BME280;62515;52.758;5.076;2023-07-13T03:09:16;101372.56;;;14.08;100.00
74163;BME280;62515;52.758;5.076;2023-07-13T03:11:49;101372.56;;;14.08;100.00
74163;BME280;62515;52.758;5.076;2023-07-13T03:14:22;101366.72;;;14.03;100.00
74163;BME280;62515;52.758;5.076;2023-07-13T03:16:49;101376.66;;;14.01;100.00
74163;BME280;62515;52.758;5.076;2023-07-13T03:19:16;101370.63;;;14.10;100.00
74163;BME280;62515;52.758;5.076;2023-07-13T03:21:49;101382.78;;;14.14;100.00
74163;BME280;62515;52.758;5.076;2023-07-13T03:24:16;101367.72;;;14.13;100.00
74163;BME280;62515;52.758;5.076;2023-07-13T03:26:43;101368.06;;;14.09;100.00
74163;BME280;62515;52.758;5.076;2023-07-13T03:29:10;101369.41;;;14.03;100.00
74163;BME280;62515;52.758;5.076;2023-07-13T03:31:37;101378.53;;;14.01;100.00
74163;BME280;62515;52.758;5.076;2023-07-13T03:34:04;101359.13;;;13.86;100.00
74163;BME280;62515;52.758;5.076;2023-07-13T03:36:32;101372.03;;;13.92;100.00
74163;BME280;62515;52.758;5.076;2023-07-13T03:39:04;101377.38;;;13.92;100.00
74163;BME280;62515;52.758;5.076;2023-07-13T03:41:46;101387.97;;;13.94;100.00
74163;BME280;62515;52.758;5.076;2023-07-13T03:44:15;101390.03;;;13.90;100.00
74163;BME280;62515;52.758;5.076;2023-07-13T03:46:43;101382.25;;;13.87;100.00
74163;BME280;62515;52.758;5.076;2023-07-13T03:49:10;101379.34;;;13.90;100.00
74163;BME280;62515;52.758;5.076;2023-07-13T03:51:37;101383.72;;;13.91;100.00
74163;BME280;62515;52.758;5.076;2023-07-13T03:54:06;101394.91;;;13.96;100.00
74163;BME280;62515;52.758;5.076;2023-07-13T03:56:33;101386.03;;;13.96;100.00
74163;BME280;62515;52.758;5.076;2023-07-13T03:59:02;101385.69;;;14.00;100.00
74163;BME280;62515;52.758;5.076;2023-07-13T04:01:29;101392.53;;;14.04;100.00
74163;BME280;62515;52.758;5.076;2023-07-13T04:03:56;101397.00;;;14.04;100.00
74163;BME280;62515;52.758;5.076;2023-07-13T04:06:28;101390.03;;;14.01;100.00
74163;BME280;62515;52.758;5.076;2023-07-13T04:08:57;101390.56;;;14.06;100.00
74163;BME280;62515;52.758;5.076;2023-07-13T04:11:28;101392.28;;;14.07;100.00
74163;BME280;62515;52.758;5.076;2023-07-13T04:13:56;101383.97;;;13.99;100.00
74163;BME280;62515;52.758;5.076;2023-07-13T04:16:23;101383.50;;;14.05;100.00
74163;BME280;62515;52.758;5.076;2023-07-13T04:18:50;101398.00;;;14.14;100.00
74163;BME280;62515;52.758;5.076;2023-07-13T04:21:17;101404.84;;;14.29;100.00
74163;BME280;62515;52.758;5.076;2023-07-13T04:23:44;101402.41;;;14.26;100.00
74163;BME280;62515;52.758;5.076;2023-07-13T04:26:11;101406.41;;;14.32;100.00
74163;BME280;62515;52.758;5.076;2023-07-13T04:28:39;101408.88;;;14.35;100.00
74163;BME280;62515;52.758;5.076;2023-07-13T04:31:06;101415.00;;;14.37;100.00
74163;BME280;62515;52.758;5.076;2023-07-13T04:33:33;101411.94;;;14.41;100.00
74163;BME280;62515;52.758;5.076;2023-07-13T04:36:00;101407.44;;;14.42;100.00
74163;BME280;62515;52.758;5.076;2023-07-13T04:38:30;101412.91;;;14.51;100.00
74163;BME280;62515;52.758;5.076;2023-07-13T04:41:00;101416.94;;;14.57;100.00
74163;BME280;62515;52.758;5.076;2023-07-13T04:43:28;101413.66;;;14.64;100.00
74163;BME280;62515;52.758;5.076;2023-07-13T04:45:57;101415.38;;;14.65;100.00
74163;BME280;62515;52.758;5.076;2023-07-13T04:48:24;101405.75;;;14.63;100.00
74163;BME280;62515;52.758;5.076;2023-07-13T04:50:54;101418.28;;;14.74;100.00
74163;BME280;62515;52.758;5.076;2023-07-13T04:53:21;101426.19;;;14.75;100.00
74163;BME280;62515;52.758;5.076;2023-07-13T04:55:48;101409.63;;;14.70;100.00
74163;BME280;62515;52.758;5.076;2023-07-13T04:58:15;101425.22;;;14.87;100.00
74163;BME280;62515;52.758;5.076;2023-07-13T05:00:42;101418.84;;;14.99;100.00
74163;BME280;62515;52.758;5.076;2023-07-13T05:03:10;101430.78;;;15.17;100.00
74163;BME280;62515;52.758;5.076;2023-07-13T05:05:37;101427.34;;;15.27;100.00
74163;BME280;62515;52.758;5.076;2023-07-13T05:08:04;101431.81;;;15.48;100.00
74163;BME280;62515;52.758;5.076;2023-07-13T05:10:31;101427.56;;;15.78;100.00
74163;BME280;62515;52.758;5.076;2023-07-13T05:12:58;101423.53;;;16.04;100.00
74163;BME280;62515;52.758;5.076;2023-07-13T05:15:24;101439.28;;;16.39;100.00
74163;BME280;62515;52.758;5.076;2023-07-13T05:17:51;101446.78;;;16.56;100.00
74163;BME280;62515;52.758;5.076;2023-07-13T05:20:19;101436.66;;;16.69;100.00
74163;BME280;62515;52.758;5.076;2023-07-13T05:22:46;101450.19;;;16.88;100.00
74163;BME280;62515;52.758;5.076;2023-07-13T05:25:13;101451.53;;;17.03;100.00
74163;BME280;62515;52.758;5.076;2023-07-13T05:27:40;101445.97;;;16.95;100.00
74163;BME280;62515;52.758;5.076;2023-07-13T05:30:08;101452.38;;;17.04;100.00
74163;BME280;62515;52.758;5.076;2023-07-13T05:32:35;101456.09;;;17.12;100.00
74163;BME280;62515;52.758;5.076;2023-07-13T05:35:02;101450.41;;;17.06;100.00
74163;BME280;62515;52.758;5.076;2023-07-13T05:37:30;101442.47;;;17.04;100.00
74163;BME280;62515;52.758;5.076;2023-07-13T05:39:57;101462.28;;;17.03;100.00
74163;BME280;62515;52.758;5.076;2023-07-13T05:42:23;101460.50;;;17.13;100.00
74163;BME280;62515;52.758;5.076;2023-07-13T05:44:50;101460.91;;;17.18;100.00
74163;BME280;62515;52.758;5.076;2023-07-13T05:47:17;101455.25;;;17.21;100.00
74163;BME280;62515;52.758;5.076;2023-07-13T05:49:44;101466.28;;;17.18;100.00
74163;BME280;62515;52.758;5.076;2023-07-13T05:52:11;101461.34;;;17.23;100.00
74163;BME280;62515;52.758;5.076;2023-07-13T05:54:39;101451.44;;;17.24;100.00
74163;BME280;62515;52.758;5.076;2023-07-13T05:57:06;101463.50;;;17.30;100.00
74163;BME280;62515;52.758;5.076;2023-07-13T05:59:33;101474.28;;;17.30;100.00
74163;BME280;62515;52.758;5.076;2023-07-13T06:01:59;101479.34;;;17.23;100.00
74163;BME280;62515;52.758;5.076;2023-07-13T06:04:26;101474.97;;;17.32;100.00
74163;BME280;62515;52.758;5.076;2023-07-13T06:06:53;101486.69;;;17.21;100.00
74163;BME280;62515;52.758;5.076;2023-07-13T06:09:20;101479.47;;;17.21;100.00
74163;BME280;62515;52.758;5.076;2023-07-13T06:11:48;101488.13;;;17.25;100.00
74163;BME280;62515;52.758;5.076;2023-07-13T06:14:15;101489.25;;;17.22;100.00
74163;BME280;62515;52.758;5.076;2023-07-13T06:16:42;101473.63;;;17.07;100.00
74163;BME280;62515;52.758;5.076;2023-07-13T06:19:09;101496.78;;;17.29;100.00
74163;BME280;62515;52.758;5.076;2023-07-13T06:21:36;101491.25;;;17.40;100.00
74163;BME280;62515;52.758;5.076;2023-07-13T06:24:03;101496.41;;;17.52;100.00
74163;BME280;62515;52.758;5.076;2023-07-13T06:26:30;101503.75;;;17.50;100.00
74163;BME280;62515;52.758;5.076;2023-07-13T06:28:58;101496.09;;;17.36;100.00
74163;BME280;62515;52.758;5.076;2023-07-13T06:31:25;101509.25;;;17.30;100.00
74163;BME280;62515;52.758;5.076;2023-07-13T06:33:52;101517.81;;;17.23;100.00
74163;BME280;62515;52.758;5.076;2023-07-13T06:36:19;101513.31;;;17.24;100.00
74163;BME280;62515;52.758;5.076;2023-07-13T06:38:46;101529.72;;;17.21;100.00
74163;BME280;62515;52.758;5.076;2023-07-13T06:41:12;101522.75;;;17.09;100.00
74163;BME280;62515;52.758;5.076;2023-07-13T06:43:40;101520.41;;;16.95;100.00
74163;BME280;62515;52.758;5.076;2023-07-13T06:46:09;101531.31;;;16.93;100.00
74163;BME280;62515;52.758;5.076;2023-07-13T06:48:36;101532.41;;;16.91;100.00
74163;BME280;62515;52.758;5.076;2023-07-13T06:51:03;101528.41;;;16.85;100.00
74163;BME280;62515;52.758;5.076;2023-07-13T06:53:30;101539.28;;;16.74;100.00
74163;BME280;62515;52.758;5.076;2023-07-13T06:55:57;101532.56;;;16.68;100.00
74163;BME280;62515;52.758;5.076;2023-07-13T06:58:24;101542.72;;;16.65;100.00
74163;BME280;62515;52.758;5.076;2023-07-13T07:00:51;101542.53;;;16.57;100.00
74163;BME280;62515;52.758;5.076;2023-07-13T07:03:20;101550.59;;;16.57;100.00
74163;BME280;62515;52.758;5.076;2023-07-13T07:05:47;101550.78;;;16.65;100.00
74163;BME280;62515;52.758;5.076;2023-07-13T07:08:14;101548.16;;;16.74;100.00
74163;BME280;62515;52.758;5.076;2023-07-13T07:10:41;101554.13;;;16.78;100.00
74163;BME280;62515;52.758;5.076;2023-07-13T07:13:09;101559.00;;;16.84;100.00
74163;BME280;62515;52.758;5.076;2023-07-13T07:15:36;101559.44;;;16.68;100.00
74163;BME280;62515;52.758;5.076;2023-07-13T07:18:03;101560.81;;;16.63;100.00
74163;BME280;62515;52.758;5.076;2023-07-13T07:20:31;101559.06;;;16.73;100.00
74163;BME280;62515;52.758;5.076;2023-07-13T07:22:58;101558.78;;;16.97;100.00
74163;BME280;62515;52.758;5.076;2023-07-13T07:25:25;101561.84;;;17.13;100.00
74163;BME280;62515;52.758;5.076;2023-07-13T07:27:52;101550.59;;;17.38;100.00
74163;BME280;62515;52.758;5.076;2023-07-13T07:30:22;101549.75;;;17.68;100.00
74163;BME280;62515;52.758;5.076;2023-07-13T07:32:51;101544.13;;;18.00;100.00
74163;BME280;62515;52.758;5.076;2023-07-13T07:35:23;101550.63;;;18.45;100.00
74163;BME280;62515;52.758;5.076;2023-07-13T07:37:51;101536.59;;;18.61;100.00
74163;BME280;62515;52.758;5.076;2023-07-13T07:40:18;101543.81;;;18.41;100.00
74163;BME280;62515;52.758;5.076;2023-07-13T07:42:48;101542.44;;;18.66;100.00
74163;BME280;62515;52.758;5.076;2023-07-13T07:45:15;101542.41;;;19.12;100.00
74163;BME280;62515;52.758;5.076;2023-07-13T07:47:41;101539.00;;;19.57;100.00
74163;BME280;62515;52.758;5.076;2023-07-13T07:50:09;101536.63;;;20.07;100.00
74163;BME280;62515;52.758;5.076;2023-07-13T07:52:36;101522.03;;;20.53;100.00
74163;BME280;62515;52.758;5.076;2023-07-13T07:55:06;101536.72;;;21.19;100.00
74163;BME280;62515;52.758;5.076;2023-07-13T07:57:36;101523.59;;;21.41;100.00
74163;BME280;62515;52.758;5.076;2023-07-13T08:00:07;101518.31;;;21.05;100.00
74163;BME280;62515;52.758;5.076;2023-07-13T08:02:40;101517.00;;;21.93;100.00
74163;BME280;62515;52.758;5.076;2023-07-13T08:05:26;101511.53;;;21.85;100.00
74163;BME280;62515;52.758;5.076;2023-07-13T08:08:06;101526.72;;;22.36;100.00
74163;BME280;62515;52.758;5.076;2023-07-13T08:10:36;101523.28;;;22.18;100.00
74163;BME280;62515;52.758;5.076;2023-07-13T08:13:03;101526.69;;;22.84;100.00
74163;BME280;62515;52.758;5.076;2023-07-13T08:15:33;101520.94;;;23.42;100.00
74163;BME280;62515;52.758;5.076;2023-07-13T08:18:00;101527.56;;;23.40;100.00
74163;BME280;62515;52.758;5.076;2023-07-13T08:20:30;101537.34;;;22.94;100.00
74163;BME280;62515;52.758;5.076;2023-07-13T08:22:57;101522.81;;;22.30;100.00
74163;BME280;62515;52.758;5.076;2023-07-13T08:25:24;101534.47;;;22.47;100.00
74163;BME280;62515;52.758;5.076;2023-07-13T08:27:52;101501.38;;;21.87;100.00
74163;BME280;62515;52.758;5.076;2023-07-13T08:30:19;101542.63;;;21.57;100.00
74163;BME280;62515;52.758;5.076;2023-07-13T08:32:46;101550.56;;;20.47;100.00
74163;BME280;62515;52.758;5.076;2023-07-13T08:35:13;101547.72;;;19.68;100.00
74163;BME280;62515;52.758;5.076;2023-07-13T08:37:39;101530.19;;;19.18;100.00
74163;BME280;62515;52.758;5.076;2023-07-13T08:40:08;101557.66;;;19.68;100.00
74163;BME280;62515;52.758;5.076;2023-07-13T08:42:39;101557.72;;;21.00;100.00
74163;BME280;62515;52.758;5.076;2023-07-13T08:45:17;101550.72;;;21.57;100.00
74163;BME280;62515;52.758;5.076;2023-07-13T08:47:53;101545.84;;;22.26;100.00
74163;BME280;62515;52.758;5.076;2023-07-13T08:50:25;101561.94;;;21.62;100.00
74163;BME280;62515;52.758;5.076;2023-07-13T08:52:55;101558.72;;;22.65;100.00
74163;BME280;62515;52.758;5.076;2023-07-13T08:55:26;101537.38;;;22.62;100.00
74163;BME280;62515;52.758;5.076;2023-07-13T08:58:00;101560.22;;;21.95;100.00
74163;BME280;62515;52.758;5.076;2023-07-13T09:00:48;101568.97;;;20.87;100.00
74163;BME280;62515;52.758;5.076;2023-07-13T09:03:20;101539.69;;;19.59;100.00
74163;BME280;62515;52.758;5.076;2023-07-13T09:05:52;101559.56;;;20.20;100.00
74163;BME280;62515;52.758;5.076;2023-07-13T09:08:38;101567.81;;;21.49;100.00
74163;BME280;62515;52.758;5.076;2023-07-13T09:11:17;101555.59;;;23.24;100.00
74163;BME280;62515;52.758;5.076;2023-07-13T09:13:54;101574.50;;;24.26;100.00
74163;BME280;62515;52.758;5.076;2023-07-13T09:16:25;101578.06;;;22.94;100.00
74163;BME280;62515;52.758;5.076;2023-07-13T09:18:56;101577.72;;;22.49;100.00
74163;BME280;62515;52.758;5.076;2023-07-13T09:21:28;101589.88;;;22.04;100.00
74163;BME280;62515;52.758;5.076;2023-07-13T09:24:01;101589.66;;;20.96;100.00
74163;BME280;62515;52.758;5.076;2023-07-13T09:26:29;101577.75;;;21.82;100.00
74163;BME280;62515;52.758;5.076;2023-07-13T09:29:03;101587.25;;;22.77;100.00
74163;BME280;62515;52.758;5.076;2023-07-13T09:31:37;101588.31;;;23.86;100.00
74163;BME280;62515;52.758;5.076;2023-07-13T09:34:09;101589.19;;;24.17;100.00
74163;BME280;62515;52.758;5.076;2023-07-13T09:36:37;101588.00;;;25.17;100.00
74163;BME280;62515;52.758;5.076;2023-07-13T09:39:10;101585.38;;;25.24;100.00
74163;BME280;62515;52.758;5.076;2023-07-13T09:41:46;101592.69;;;25.82;100.00
74163;BME280;62515;52.758;5.076;2023-07-13T09:44:15;101599.16;;;24.93;100.00
74163;BME280;62515;52.758;5.076;2023-07-13T09:46:46;101602.88;;;25.73;100.00
74163;BME280;62515;52.758;5.076;2023-07-13T09:49:13;101609.00;;;25.61;100.00
74163;BME280;62515;52.758;5.076;2023-07-13T09:51:41;101604.59;;;24.93;100.00
74163;BME280;62515;52.758;5.076;2023-07-13T09:54:17;101602.31;;;25.78;100.00
74163;BME280;62515;52.758;5.076;2023-07-13T09:56:45;101612.91;;;25.43;100.00
74163;BME280;62515;52.758;5.076;2023-07-13T09:59:19;101608.41;;;25.80;100.00
74163;BME280;62515;52.758;5.076;2023-07-13T10:01:47;101602.34;;;26.35;100.00
74163;BME280;62515;52.758;5.076;2023-07-13T10:04:18;101603.06;;;26.43;100.00
74163;BME280;62515;52.758;5.076;2023-07-13T10:06:46;101604.97;;;26.85;100.00
74163;BME280;62515;52.758;5.076;2023-07-13T10:09:15;101616.59;;;26.30;100.00
74163;BME280;62515;52.758;5.076;2023-07-13T10:11:42;101614.50;;;26.75;100.00
74163;BME280;62515;52.758;5.076;2023-07-13T10:14:12;101613.66;;;26.95;100.00
74163;BME280;62515;52.758;5.076;2023-07-13T10:16:42;101630.31;;;26.58;100.00
74163;BME280;62515;52.758;5.076;2023-07-13T10:19:14;101624.41;;;26.76;100.00
74163;BME280;62515;52.758;5.076;2023-07-13T10:21:56;101635.19;;;27.05;100.00
74163;BME280;62515;52.758;5.076;2023-07-13T10:24:26;101634.50;;;26.04;100.00
74163;BME280;62515;52.758;5.076;2023-07-13T10:26:57;101617.88;;;26.77;100.00
74163;BME280;62515;52.758;5.076;2023-07-13T10:29:27;101641.81;;;26.32;100.00
74163;BME280;62515;52.758;5.076;2023-07-13T10:31:56;101635.25;;;25.10;100.00
74163;BME280;62515;52.758;5.076;2023-07-13T10:34:24;101631.75;;;24.02;100.00
74163;BME280;62515;52.758;5.076;2023-07-13T10:36:51;101631.59;;;24.57;100.00
74163;BME280;62515;52.758;5.076;2023-07-13T10:39:22;101633.81;;;24.76;100.00
74163;BME280;62515;52.758;5.076;2023-07-13T10:41:53;101649.25;;;24.38;100.00
74163;BME280;62515;52.758;5.076;2023-07-13T10:44:24;101643.31;;;25.03;100.00
74163;BME280;62515;52.758;5.076;2023-07-13T10:46:55;101654.53;;;25.37;100.00
74163;BME280;62515;52.758;5.076;2023-07-13T10:49:24;101610.69;;;24.95;100.00
74163;BME280;62515;52.758;5.076;2023-07-13T10:51:53;101660.13;;;25.59;100.00
74163;BME280;62515;52.758;5.076;2023-07-13T10:54:21;101663.75;;;26.24;100.00
74163;BME280;62515;52.758;5.076;2023-07-13T10:57:06;101657.13;;;26.90;100.00
74163;BME280;62515;52.758;5.076;2023-07-13T10:59:34;101665.19;;;27.54;100.00
74163;BME280;62515;52.758;5.076;2023-07-13T11:02:11;101671.16;;;26.87;100.00
74163;BME280;62515;52.758;5.076;2023-07-13T11:04:42;101655.63;;;26.88;100.00
74163;BME280;62515;52.758;5.076;2023-07-13T11:07:21;101674.34;;;27.40;100.00
74163;BME280;62515;52.758;5.076;2023-07-13T11:09:52;101668.72;;;27.20;100.00
74163;BME280;62515;52.758;5.076;2023-07-13T11:12:49;101665.88;;;27.35;100.00
74163;BME280;62515;52.758;5.076;2023-07-13T11:15:30;101673.16;;;27.21;100.00
74163;BME280;62515;52.758;5.076;2023-07-13T11:17:57;101672.19;;;27.35;100.00
74163;BME280;62515;52.758;5.076;2023-07-13T11:20:34;101669.06;;;27.66;100.00
74163;BME280;62515;52.758;5.076;2023-07-13T11:23:16;101686.56;;;27.72;100.00
74163;BME280;62515;52.758;5.076;2023-07-13T11:25:44;101670.69;;;27.95;100.00
74163;BME280;62515;52.758;5.076;2023-07-13T11:28:17;101670.53;;;26.85;100.00
74163;BME280;62515;52.758;5.076;2023-07-13T11:30:47;101685.00;;;27.56;100.00
74163;BME280;62515;52.758;5.076;2023-07-13T11:33:17;101669.19;;;27.86;100.00
74163;BME280;62515;52.758;5.076;2023-07-13T11:35:51;101686.75;;;27.15;100.00
74163;BME280;62515;52.758;5.076;2023-07-13T11:38:20;101678.13;;;26.90;100.00
74163;BME280;62515;52.758;5.076;2023-07-13T11:40:50;101685.97;;;27.48;100.00
74163;BME280;62515;52.758;5.076;2023-07-13T11:43:22;101684.16;;;26.28;100.00
74163;BME280;62515;52.758;5.076;2023-07-13T11:45:50;101689.94;;;26.76;100.00
74163;BME280;62515;52.758;5.076;2023-07-13T11:48:22;101688.94;;;26.98;100.00
74163;BME280;62515;52.758;5.076;2023-07-13T11:50:54;101694.50;;;27.11;100.00
74163;BME280;62515;52.758;5.076;2023-07-13T11:53:22;101692.53;;;26.63;100.00
74163;BME280;62515;52.758;5.076;2023-07-13T11:55:50;101696.53;;;26.45;100.00
74163;BME280;62515;52.758;5.076;2023-07-13T11:58:21;101684.84;;;26.51;100.00
74163;BME280;62515;52.758;5.076;2023-07-13T12:00:49;101694.84;;;26.44;100.00
74163;BME280;62515;52.758;5.076;2023-07-13T12:03:21;101695.31;;;26.48;100.00
74163;BME280;62515;52.758;5.076;2023-07-13T12:05:57;101697.16;;;26.26;100.00
74163;BME280;62515;52.758;5.076;2023-07-13T12:08:24;101701.31;;;26.22;100.00
74163;BME280;62515;52.758;5.076;2023-07-13T12:11:03;101683.50;;;26.12;100.00
74163;BME280;62515;52.758;5.076;2023-07-13T12:13:35;101697.31;;;26.96;100.00
74163;BME280;62515;52.758;5.076;2023-07-13T12:16:11;101693.75;;;26.24;100.00
74163;BME280;62515;52.758;5.076;2023-07-13T12:18:38;101698.88;;;26.48;100.00
74163;BME280;62515;52.758;5.076;2023-07-13T12:21:12;101699.81;;;26.77;100.00
74163;BME280;62515;52.758;5.076;2023-07-13T12:23:43;101701.41;;;26.86;100.00
74163;BME280;62515;52.758;5.076;2023-07-13T12:26:11;101665.19;;;26.98;100.00
74163;BME280;62515;52.758;5.076;2023-07-13T12:28:45;101708.13;;;27.32;100.00
74163;BME280;62515;52.758;5.076;2023-07-13T12:31:30;101717.84;;;26.06;100.00
74163;BME280;62515;52.758;5.076;2023-07-13T12:34:00;101709.47;;;26.22;100.00
74163;BME280;62515;52.758;5.076;2023-07-13T12:36:32;101709.75;;;25.98;100.00
74163;BME280;62515;52.758;5.076;2023-07-13T12:39:04;101699.34;;;26.16;100.00
74163;BME280;62515;52.758;5.076;2023-07-13T12:41:36;101656.31;;;26.54;100.00
74163;BME280;62515;52.758;5.076;2023-07-13T12:44:04;101687.47;;;26.60;100.00
74163;BME280;62515;52.758;5.076;2023-07-13T12:46:31;101711.84;;;25.81;100.00
74163;BME280;62515;52.758;5.076;2023-07-13T12:48:58;101700.66;;;26.56;100.00
74163;BME280;62515;52.758;5.076;2023-07-13T12:51:44;101703.84;;;25.94;100.00